createdAt,value
2022-08-22T00:02:19.879Z,9.23
2022-08-22T00:02:48.149Z,5.50
2022-08-22T00:07:31.044Z,8.35
2022-08-22T00:12:38.218Z,8.65
2022-08-22T00:17:48.806Z,6.70
2022-08-22T00:22:56.588Z,9.80
2022-08-22T00:28:03.193Z,8.18
2022-08-22T00:33:16.072Z,9.85
2022-08-22T00:38:28.304Z,8.85
2022-08-22T00:44:08.264Z,10.95
2022-08-22T00:49:19.199Z,9.25
2022-08-22T00:54:30.476Z,8.30
2022-08-22T00:59:50.287Z,13.18
2022-08-22T01:05:04.853Z,7.45
2022-08-22T01:10:23.831Z,7.50
2022-08-22T01:15:29.569Z,9.65
2022-08-22T01:21:03.522Z,5.65
2022-08-22T01:26:48.638Z,8.70
2022-08-22T01:32:10.780Z,8.23
2022-08-22T01:37:52.877Z,10.10
2022-08-22T01:43:07.268Z,9.15
2022-08-22T01:48:15.047Z,10.77
2022-08-22T01:53:24.210Z,10.32
2022-08-22T01:58:31.400Z,9.50
2022-08-22T02:03:38.442Z,9.13
2022-08-22T02:08:45.709Z,10.65
2022-08-22T02:13:55.697Z,12.65
2022-08-22T02:19:06.696Z,10.02
2022-08-22T02:24:19.460Z,8.68
2022-08-22T02:29:30.998Z,10.73
2022-08-22T02:34:39.544Z,12.13
2022-08-22T02:39:47.470Z,10.13
2022-08-22T02:44:58.562Z,9.23
2022-08-22T02:50:12.633Z,8.75
2022-08-22T02:55:21.273Z,7.60
2022-08-22T03:00:32.598Z,12.30
2022-08-22T03:05:49.674Z,12.95
2022-08-22T03:11:02.876Z,11.40
2022-08-22T03:16:11.852Z,17.65
2022-08-22T03:21:19.029Z,10.85
2022-08-22T03:26:27.777Z,8.98
2022-08-22T03:31:32.761Z,9.90
2022-08-22T03:36:36.047Z,13.55
2022-08-22T03:41:59.365Z,12.98
2022-08-22T03:47:31.085Z,10.93
2022-08-22T03:53:18.837Z,13.10
2022-08-22T03:58:52.096Z,10.93
2022-08-22T04:04:20.131Z,10.82
2022-08-22T04:09:35.738Z,12.73
2022-08-22T04:15:08.879Z,13.38
2022-08-22T04:20:45.264Z,10.77
2022-08-22T04:25:52.859Z,12.05
2022-08-22T04:31:00.029Z,13.75
2022-08-22T04:36:06.569Z,13.27
2022-08-22T04:41:15.110Z,13.10
2022-08-22T04:46:22.992Z,13.02
2022-08-22T04:51:30.731Z,19.83
2022-08-22T04:56:40.501Z,11.32
2022-08-22T05:01:46.647Z,11.00
2022-08-22T05:06:53.850Z,11.80
2022-08-22T05:12:01.580Z,13.35
2022-08-22T05:17:07.414Z,13.43
2022-08-22T05:22:15.785Z,15.45
2022-08-22T05:27:22.645Z,17.77
2022-08-22T05:32:27.432Z,12.65
2022-08-22T05:37:38.324Z,11.65
2022-08-22T05:42:42.675Z,11.70
2022-08-22T05:47:52.127Z,15.70
2022-08-22T05:53:03.624Z,12.40
2022-08-22T05:58:17.747Z,9.55
2022-08-22T06:03:26.834Z,13.40
2022-08-22T06:08:34.313Z,8.57
2022-08-22T06:13:41.519Z,10.13
2022-08-22T06:18:45.693Z,9.93
2022-08-22T06:23:51.946Z,9.73
2022-08-22T06:28:58.811Z,7.53
2022-08-22T06:34:05.670Z,5.30
2022-08-22T06:39:12.679Z,11.68
2022-08-22T06:44:19.901Z,8.07
2022-08-22T06:49:23.411Z,6.85
2022-08-22T06:54:33.793Z,6.18
2022-08-22T06:59:39.247Z,8.80
2022-08-22T07:04:41.955Z,9.25
2022-08-22T07:09:44.878Z,8.52
2022-08-22T07:14:51.370Z,6.50
2022-08-22T07:19:59.319Z,5.60
2022-08-22T07:25:07.234Z,4.45
2022-08-22T07:30:13.990Z,3.78
2022-08-22T07:35:19.198Z,6.97
2022-08-22T07:40:27.097Z,7.00
2022-08-22T07:45:37.709Z,4.85
2022-08-22T07:50:47.279Z,2.40
2022-08-22T07:55:50.082Z,3.97
2022-08-22T08:00:54.610Z,3.38
2022-08-22T08:05:57.451Z,2.55
2022-08-22T08:11:01.252Z,5.68
2022-08-22T08:16:07.733Z,3.67
2022-08-22T08:21:18.150Z,3.30
2022-08-22T08:26:22.837Z,2.65
2022-08-22T08:31:28.960Z,2.42
2022-08-22T08:36:37.778Z,4.90
2022-08-22T08:42:14.051Z,3.42
2022-08-22T08:47:52.618Z,2.67
2022-08-22T08:53:07.726Z,3.17
2022-08-22T08:58:22.754Z,5.60
2022-08-22T09:04:15.333Z,3.75
2022-08-22T09:09:29.586Z,2.65
2022-08-22T09:15:05.542Z,4.38
2022-08-22T09:20:30.875Z,2.92
2022-08-22T09:25:39.940Z,2.55
2022-08-22T09:30:59.499Z,4.13
2022-08-22T09:36:06.283Z,3.95
2022-08-22T09:41:27.055Z,3.28
2022-08-22T09:46:36.852Z,4.32
2022-08-22T09:51:45.236Z,2.53
2022-08-22T09:56:58.335Z,2.67
2022-08-22T10:02:07.088Z,4.68
2022-08-22T10:07:59.021Z,3.38
2022-08-22T10:13:10.514Z,3.83
2022-08-22T10:18:21.665Z,5.90
2022-08-22T10:23:27.596Z,4.25
2022-08-22T10:28:37.773Z,4.38
2022-08-22T10:33:44.407Z,4.20
2022-08-22T10:38:49.454Z,5.78
2022-08-22T10:44:04.423Z,2.72
2022-08-22T10:49:10.150Z,4.15
2022-08-22T10:54:29.120Z,5.20
2022-08-22T10:59:39.364Z,3.38
2022-08-22T11:04:56.680Z,6.13
2022-08-22T11:10:04.708Z,4.57
2022-08-22T11:15:27.294Z,3.25
2022-08-22T11:20:48.394Z,4.55
2022-08-22T11:25:55.277Z,3.50
2022-08-22T11:31:12.281Z,7.05
2022-08-22T11:36:30.957Z,3.08
2022-08-22T11:41:39.970Z,4.78
2022-08-22T11:46:46.063Z,4.72
2022-08-22T11:52:11.475Z,3.38
2022-08-22T11:57:18.154Z,5.50
2022-08-22T12:02:27.311Z,4.50
2022-08-22T12:07:38.133Z,3.28
2022-08-22T12:12:55.260Z,4.93
2022-08-22T12:18:22.771Z,3.95
2022-08-22T12:23:48.769Z,6.22
2022-08-22T12:29:05.116Z,4.57
2022-08-22T12:34:23.479Z,5.95
2022-08-22T12:40:12.204Z,4.38
2022-08-22T12:45:26.854Z,4.03
2022-08-22T12:50:39.427Z,6.00
2022-08-22T12:55:54.946Z,4.82
2022-08-22T13:01:00.756Z,5.40
2022-08-22T13:06:13.757Z,5.63
2022-08-22T13:11:23.016Z,7.35
2022-08-22T13:16:36.395Z,5.03
2022-08-22T13:21:44.979Z,4.30
2022-08-22T13:26:50.479Z,6.65
2022-08-22T13:31:56.152Z,5.63
2022-08-22T13:37:01.943Z,5.00
2022-08-22T13:42:14.404Z,4.68
2022-08-22T13:47:25.474Z,4.45
2022-08-22T13:52:31.756Z,5.55
2022-08-22T13:57:37.971Z,3.60
2022-08-22T14:02:49.605Z,4.60
2022-08-22T14:08:01.429Z,5.20
2022-08-22T14:13:46.008Z,4.80
2022-08-22T14:18:53.639Z,4.75
2022-08-22T14:24:00.682Z,5.10
2022-08-22T14:29:07.069Z,4.97
2022-08-22T14:34:12.813Z,4.82
2022-08-22T14:39:24.305Z,5.63
2022-08-22T14:44:30.529Z,3.97
2022-08-22T14:49:38.228Z,5.50
2022-08-22T14:54:42.663Z,4.20
2022-08-22T14:59:50.084Z,6.22
2022-08-22T15:04:54.954Z,3.30
2022-08-22T15:10:03.166Z,6.32
2022-08-22T15:15:10.270Z,6.93
2022-08-22T15:20:26.053Z,6.05
2022-08-22T15:25:35.433Z,7.50
2022-08-22T15:30:44.384Z,5.00
2022-08-22T15:35:48.177Z,3.60
2022-08-22T15:40:52.796Z,3.58
2022-08-22T15:46:15.630Z,3.33
2022-08-22T15:51:35.474Z,3.90
2022-08-22T15:56:42.758Z,5.30
2022-08-22T16:01:52.336Z,7.03
2022-08-22T16:06:58.008Z,5.70
2022-08-22T16:12:04.481Z,6.32
2022-08-22T16:17:28.583Z,4.03
2022-08-22T16:23:03.686Z,5.10
2022-08-22T16:28:31.667Z,3.85
2022-08-22T16:33:44.258Z,5.20
2022-08-22T16:38:48.800Z,3.78
2022-08-22T16:44:24.175Z,5.72
2022-08-22T16:49:29.428Z,4.43
2022-08-22T16:54:45.162Z,6.05
2022-08-22T17:00:11.157Z,5.03
2022-08-22T17:05:30.009Z,4.18
2022-08-22T17:10:43.282Z,6.50
2022-08-22T17:15:57.831Z,5.30
2022-08-22T17:21:06.293Z,7.20
2022-08-22T17:26:21.010Z,8.00
2022-08-22T17:31:30.730Z,5.65
2022-08-22T17:36:42.497Z,5.72
2022-08-22T17:41:50.826Z,5.15
2022-08-22T17:46:56.665Z,4.80
2022-08-22T17:52:01.713Z,5.22
2022-08-22T17:57:09.733Z,6.28
2022-08-22T18:02:18.770Z,5.55
2022-08-22T18:07:35.485Z,7.05
2022-08-22T18:12:42.902Z,5.43
2022-08-22T18:17:51.086Z,4.85
2022-08-22T18:22:56.830Z,5.68
2022-08-22T18:28:03.385Z,6.95
2022-08-22T18:33:12.297Z,9.07
2022-08-22T18:38:22.339Z,7.00
2022-08-22T18:43:36.906Z,9.20
2022-08-22T18:49:05.453Z,6.53
2022-08-22T18:54:34.254Z,8.48
2022-08-22T18:59:49.329Z,5.35
2022-08-22T19:05:16.071Z,6.40
2022-08-22T19:10:36.973Z,6.65
2022-08-22T19:15:45.545Z,6.72
2022-08-22T19:21:35.282Z,5.63
2022-08-22T19:26:44.803Z,5.00
2022-08-22T19:31:51.679Z,7.75
2022-08-22T19:37:32.134Z,5.72
2022-08-22T19:42:39.441Z,5.22
2022-08-22T19:47:43.752Z,10.30
2022-08-22T19:53:08.555Z,7.93
2022-08-22T19:58:17.271Z,7.20
2022-08-22T20:03:32.934Z,6.05
2022-08-22T20:08:49.491Z,7.23
